createdAt,value
2023-03-03T00:01:07.072Z,2.90
2023-03-03T00:03:35.431Z,2.90
2023-03-03T00:06:05.121Z,2.90
2023-03-03T00:08:33.579Z,2.80
2023-03-03T00:11:03.243Z,2.80
2023-03-03T00:13:32.949Z,2.80
2023-03-03T00:16:17.703Z,2.80
2023-03-03T00:18:47.642Z,2.80
2023-03-03T00:21:29.360Z,2.80
2023-03-03T00:24:13.157Z,2.70
2023-03-03T00:26:43.255Z,2.70
2023-03-03T00:29:36.137Z,2.70
2023-03-03T00:32:27.438Z,2.70
2023-03-03T00:34:57.352Z,2.70
2023-03-03T00:37:31.646Z,2.70
2023-03-03T00:40:20.236Z,2.70
2023-03-03T00:42:52.092Z,2.60
2023-03-03T00:45:28.252Z,2.60
2023-03-03T00:47:59.091Z,2.60
2023-03-03T00:50:32.756Z,2.60
2023-03-03T00:53:04.631Z,2.60
2023-03-03T00:55:33.371Z,2.50
2023-03-03T00:58:01.656Z,2.50
2023-03-03T01:00:29.799Z,2.50
2023-03-03T01:03:03.011Z,2.50
2023-03-03T01:05:31.194Z,2.50
2023-03-03T01:07:59.236Z,2.50
2023-03-03T01:10:29.375Z,2.50
2023-03-03T01:12:58.412Z,2.50
2023-03-03T01:15:26.592Z,2.40
2023-03-03T01:17:55.411Z,2.40
2023-03-03T01:20:24.881Z,2.40
2023-03-03T01:22:52.887Z,2.40
2023-03-03T01:25:20.855Z,2.40
2023-03-03T01:27:49.184Z,2.40
2023-03-03T01:30:17.865Z,2.40
2023-03-03T01:32:45.980Z,2.40
2023-03-03T01:35:14.101Z,2.40
2023-03-03T01:37:43.476Z,2.40
2023-03-03T01:40:16.253Z,2.40
2023-03-03T01:42:44.270Z,2.30
2023-03-03T01:45:16.853Z,2.30
2023-03-03T01:47:49.978Z,2.30
2023-03-03T01:50:29.601Z,2.30
2023-03-03T01:53:00.955Z,2.30
2023-03-03T01:55:33.180Z,2.30
2023-03-03T01:58:06.078Z,2.30
2023-03-03T02:00:37.380Z,2.30
2023-03-03T02:03:06.417Z,2.30
2023-03-03T02:05:36.363Z,2.30
2023-03-03T02:08:06.307Z,2.20
2023-03-03T02:10:34.314Z,2.20
2023-03-03T02:13:02.339Z,2.20
2023-03-03T02:15:32.700Z,2.20
2023-03-03T02:18:04.187Z,2.20
2023-03-03T02:20:44.718Z,2.20
2023-03-03T02:23:22.040Z,2.20
2023-03-03T02:26:02.981Z,2.20
2023-03-03T02:28:33.078Z,2.20
2023-03-03T02:31:02.706Z,2.20
2023-03-03T02:33:30.930Z,2.20
2023-03-03T02:35:59.008Z,2.10
2023-03-03T02:38:29.073Z,2.10
2023-03-03T02:41:04.824Z,2.10
2023-03-03T02:43:40.341Z,2.10
2023-03-03T02:46:08.433Z,2.10
2023-03-03T02:48:36.381Z,2.10
2023-03-03T02:51:04.431Z,2.10
2023-03-03T02:53:32.430Z,2.10
2023-03-03T02:56:00.349Z,2.10
2023-03-03T02:58:29.698Z,2.10
2023-03-03T03:00:57.936Z,2.10
2023-03-03T03:03:26.124Z,2.10
2023-03-03T03:05:54.100Z,2.10
2023-03-03T03:08:22.177Z,2.10
2023-03-03T03:10:50.242Z,2.10
2023-03-03T03:13:18.593Z,2.10
2023-03-03T03:15:48.398Z,2.10
2023-03-03T03:18:17.185Z,2.10
2023-03-03T03:20:46.958Z,2.10
2023-03-03T03:23:16.648Z,2.10
2023-03-03T03:25:46.711Z,2.10
2023-03-03T03:28:15.596Z,2.10
2023-03-03T03:30:45.736Z,2.10
2023-03-03T03:33:15.179Z,2.10
2023-03-03T03:35:45.642Z,2.10
2023-03-03T03:38:14.070Z,2.10
2023-03-03T03:40:42.670Z,2.10
2023-03-03T03:43:10.887Z,2.20
2023-03-03T03:45:38.859Z,2.20
2023-03-03T03:48:07.371Z,2.20
2023-03-03T03:50:37.015Z,2.20
2023-03-03T03:53:05.253Z,2.20
2023-03-03T03:55:33.791Z,2.20
2023-03-03T03:58:01.760Z,2.20
2023-03-03T04:00:29.778Z,2.20
2023-03-03T04:02:57.933Z,2.20
2023-03-03T04:05:26.126Z,2.20
2023-03-03T04:07:55.491Z,2.20
2023-03-03T04:10:23.515Z,2.30
2023-03-03T04:12:51.466Z,2.30
2023-03-03T04:15:19.658Z,2.30
2023-03-03T04:17:47.615Z,2.30
2023-03-03T04:20:16.382Z,2.30
2023-03-03T04:22:45.109Z,2.30
2023-03-03T04:25:16.601Z,2.30
2023-03-03T04:27:45.429Z,2.30
2023-03-03T04:30:15.807Z,2.30
2023-03-03T04:32:43.965Z,2.30
2023-03-03T04:35:12.445Z,2.30
2023-03-03T04:37:40.841Z,2.30
2023-03-03T04:40:11.313Z,2.40
2023-03-03T04:42:40.712Z,2.40
2023-03-03T04:45:09.654Z,2.40
2023-03-03T04:47:37.678Z,2.40
2023-03-03T04:50:06.435Z,2.40
2023-03-03T04:52:34.481Z,2.40
2023-03-03T04:55:02.525Z,2.40
2023-03-03T04:57:30.471Z,2.40
2023-03-03T04:59:59.838Z,2.40
2023-03-03T05:02:27.866Z,2.40
2023-03-03T05:04:55.980Z,2.40
2023-03-03T05:07:24.720Z,2.40
2023-03-03T05:09:52.777Z,2.40
2023-03-03T05:12:21.225Z,2.50
2023-03-03T05:14:49.162Z,2.50
2023-03-03T05:17:18.603Z,2.50
2023-03-03T05:19:46.612Z,2.50
2023-03-03T05:22:14.562Z,2.50
2023-03-03T05:24:43.910Z,2.50
2023-03-03T05:27:11.930Z,2.50
2023-03-03T05:29:39.945Z,2.50
2023-03-03T05:32:08.062Z,2.50
2023-03-03T05:34:37.644Z,2.50
2023-03-03T05:37:06.746Z,2.50
2023-03-03T05:39:35.241Z,2.50
2023-03-03T05:42:03.782Z,2.50
2023-03-03T05:44:31.792Z,2.50
2023-03-03T05:46:59.849Z,2.50
2023-03-03T05:49:27.899Z,2.50
2023-03-03T05:51:57.223Z,2.50
2023-03-03T05:54:25.524Z,2.60
2023-03-03T05:56:53.519Z,2.60
2023-03-03T05:59:21.715Z,2.60
2023-03-03T06:01:49.715Z,2.60
2023-03-03T06:04:17.968Z,2.60
2023-03-03T06:06:45.978Z,2.60
2023-03-03T06:09:16.087Z,2.60
2023-03-03T06:11:44.099Z,2.60
2023-03-03T06:14:12.099Z,2.60
2023-03-03T06:16:40.309Z,2.60
2023-03-03T06:19:08.252Z,2.60
2023-03-03T06:21:36.175Z,2.60
2023-03-03T06:24:04.186Z,2.60
2023-03-03T06:26:34.179Z,2.60
2023-03-03T06:29:02.624Z,2.60
2023-03-03T06:31:30.669Z,2.60
2023-03-03T06:33:58.686Z,2.60
2023-03-03T06:36:27.250Z,2.70
2023-03-03T06:38:55.289Z,2.70
2023-03-03T06:41:23.235Z,2.70
2023-03-03T06:43:52.631Z,2.70
2023-03-03T06:46:20.623Z,2.70
2023-03-03T06:48:48.679Z,2.70
2023-03-03T06:51:26.712Z,2.70
2023-03-03T06:53:56.988Z,2.70
2023-03-03T06:56:26.043Z,2.70
2023-03-03T06:58:58.627Z,2.70
2023-03-03T07:01:26.727Z,2.70
2023-03-03T07:03:55.694Z,2.70
2023-03-03T07:06:25.438Z,2.70
2023-03-03T07:08:53.856Z,2.70
2023-03-03T07:11:23.714Z,2.70
2023-03-03T07:13:53.472Z,2.70
2023-03-03T07:16:27.751Z,2.80
2023-03-03T07:18:56.723Z,2.80
2023-03-03T07:21:27.433Z,2.80
2023-03-03T07:23:55.520Z,2.80
2023-03-03T07:26:30.593Z,2.80
2023-03-03T07:29:01.978Z,2.80
2023-03-03T07:31:37.377Z,2.80
2023-03-03T07:34:18.532Z,2.80
2023-03-03T07:36:47.082Z,2.90
2023-03-03T07:39:31.642Z,2.90
2023-03-03T07:42:19.338Z,2.90
2023-03-03T07:44:53.233Z,2.90
2023-03-03T07:47:26.066Z,2.90
2023-03-03T07:49:55.813Z,2.90
2023-03-03T07:52:38.326Z,2.90
2023-03-03T07:55:28.174Z,3.00
2023-03-03T07:57:59.224Z,3.00
2023-03-03T08:01:12.943Z,3.00
2023-03-03T08:03:46.071Z,3.00
2023-03-03T08:06:59.077Z,3.00
2023-03-03T08:09:44.885Z,3.10
2023-03-03T08:12:28.845Z,3.10
2023-03-03T08:14:59.371Z,3.20
2023-03-03T08:17:36.276Z,3.20
2023-03-03T08:20:25.499Z,3.20
2023-03-03T08:22:53.466Z,3.20
2023-03-03T08:25:21.484Z,3.30
2023-03-03T08:27:49.501Z,3.30
2023-03-03T08:30:18.074Z,3.30
2023-03-03T08:32:46.114Z,3.40
2023-03-03T08:35:15.673Z,3.40
2023-03-03T08:37:43.731Z,3.40
2023-03-03T08:40:12.796Z,3.40
2023-03-03T08:42:40.815Z,3.40
2023-03-03T08:45:09.151Z,3.40
2023-03-03T08:47:37.180Z,3.50
2023-03-03T08:50:05.939Z,3.50
2023-03-03T08:52:35.266Z,3.60
2023-03-03T08:55:03.235Z,3.60
2023-03-03T08:57:31.265Z,3.60
2023-03-03T08:59:59.293Z,3.60
2023-03-03T09:02:27.259Z,3.70
2023-03-03T09:04:55.310Z,3.70
2023-03-03T09:07:23.295Z,3.70
2023-03-03T09:09:52.599Z,3.80
2023-03-03T09:12:26.136Z,3.80
2023-03-03T09:14:54.155Z,3.80
2023-03-03T09:17:29.443Z,3.90
2023-03-03T09:20:00.684Z,3.90
2023-03-03T09:22:29.985Z,3.90
2023-03-03T09:25:02.055Z,4.00
2023-03-03T09:27:31.951Z,4.00
2023-03-03T09:30:03.827Z,4.10
2023-03-03T09:32:35.984Z,4.10
2023-03-03T09:35:36.499Z,4.10
2023-03-03T09:38:22.440Z,4.20
2023-03-03T09:41:09.021Z,4.20
2023-03-03T09:43:42.973Z,4.30
2023-03-03T09:46:19.210Z,4.30
2023-03-03T09:48:59.368Z,4.40
2023-03-03T09:52:05.234Z,4.40
2023-03-03T09:54:54.232Z,4.50
2023-03-03T09:57:30.482Z,4.50
2023-03-03T10:00:13.110Z,4.60
2023-03-03T10:02:55.047Z,4.70
2023-03-03T10:05:36.280Z,4.70
2023-03-03T10:08:19.872Z,4.80
2023-03-03T10:10:57.892Z,4.90
2023-03-03T10:13:42.223Z,5.00
2023-03-03T10:16:32.370Z,5.00
2023-03-03T10:19:04.046Z,5.10
2023-03-03T10:21:38.193Z,5.20
2023-03-03T10:24:20.743Z,5.30
2023-03-03T10:27:13.590Z,5.40
2023-03-03T10:29:54.702Z,5.50
2023-03-03T10:32:45.579Z,5.60
2023-03-03T10:35:34.342Z,5.70
2023-03-03T10:38:22.420Z,5.80
2023-03-03T10:40:57.065Z,5.90
2023-03-03T10:43:46.809Z,6.00
2023-03-03T10:46:39.547Z,6.10
2023-03-03T10:49:22.388Z,6.20
2023-03-03T10:52:07.532Z,6.30
2023-03-03T10:54:53.004Z,6.30
2023-03-03T10:57:30.352Z,6.40
2023-03-03T11:00:09.322Z,6.50
2023-03-03T11:02:48.535Z,6.60
2023-03-03T11:05:30.342Z,6.70
2023-03-03T11:08:03.260Z,6.70
2023-03-03T11:10:52.030Z,6.80
2023-03-03T11:13:26.503Z,6.90
2023-03-03T11:16:15.924Z,7.00
2023-03-03T11:18:58.193Z,7.10
2023-03-03T11:21:34.164Z,7.20
2023-03-03T11:24:14.013Z,7.20
2023-03-03T11:27:09.913Z,7.30
2023-03-03T11:29:54.900Z,7.40
2023-03-03T11:32:34.155Z,7.50
2023-03-03T11:35:19.447Z,7.60
2023-03-03T11:37:58.252Z,7.70
2023-03-03T11:40:29.743Z,7.70
2023-03-03T11:43:05.090Z,7.70
2023-03-03T11:45:40.820Z,7.80
2023-03-03T11:48:17.908Z,7.90
2023-03-03T11:50:56.458Z,7.90
2023-03-03T11:53:35.892Z,8.00
2023-03-03T11:56:16.170Z,8.00
2023-03-03T11:58:47.976Z,8.10
2023-03-03T12:01:23.627Z,8.10
2023-03-03T12:03:57.655Z,8.10
2023-03-03T12:06:34.260Z,8.10
2023-03-03T12:09:18.668Z,8.10
2023-03-03T12:11:54.067Z,8.10
2023-03-03T12:14:36.573Z,8.20
2023-03-03T12:17:11.387Z,8.30
2023-03-03T12:19:49.304Z,8.30
2023-03-03T12:22:34.748Z,8.40
2023-03-03T12:25:23.659Z,8.40
2023-03-03T12:27:57.502Z,8.40
2023-03-03T12:30:40.936Z,8.50
2023-03-03T12:33:19.338Z,8.50
2023-03-03T12:35:55.905Z,8.50
2023-03-03T12:38:36.130Z,8.50
2023-03-03T12:41:10.351Z,8.50
2023-03-03T12:43:56.134Z,8.40
2023-03-03T12:46:30.681Z,8.40
2023-03-03T12:48:58.717Z,8.40
2023-03-03T12:51:38.710Z,8.40
2023-03-03T12:54:36.973Z,8.40
2023-03-03T12:57:16.016Z,8.30
2023-03-03T12:59:51.784Z,8.40
2023-03-03T13:02:47.730Z,8.40
2023-03-03T13:05:24.678Z,8.40
2023-03-03T13:08:06.380Z,8.50
2023-03-03T13:10:42.951Z,8.50
2023-03-03T13:13:17.897Z,8.60
2023-03-03T13:16:01.038Z,8.60
2023-03-03T13:18:38.841Z,8.60
2023-03-03T13:21:12.030Z,8.70
2023-03-03T13:23:48.548Z,8.70
2023-03-03T13:26:23.778Z,8.70
2023-03-03T13:29:00.761Z,8.80
2023-03-03T13:31:34.152Z,8.80
2023-03-03T13:34:03.089Z,8.80
2023-03-03T13:36:35.982Z,8.90
2023-03-03T13:39:15.397Z,8.80
2023-03-03T13:41:50.640Z,8.90
2023-03-03T13:44:24.371Z,8.90
2023-03-03T13:47:04.401Z,8.90
2023-03-03T13:49:47.670Z,8.90
2023-03-03T13:52:22.307Z,8.90
2023-03-03T13:55:06.595Z,8.90
2023-03-03T13:57:59.968Z,8.90
2023-03-03T14:00:53.433Z,8.80
2023-03-03T14:03:37.161Z,8.80
2023-03-03T14:06:07.218Z,8.80
2023-03-03T14:08:56.058Z,8.70
2023-03-03T14:11:27.973Z,8.90
2023-03-03T14:14:05.992Z,9.30
2023-03-03T14:16:44.594Z,9.40
2023-03-03T14:19:18.233Z,9.40
2023-03-03T14:21:54.016Z,9.30
2023-03-03T14:24:25.284Z,9.30
2023-03-03T14:26:55.326Z,9.20
2023-03-03T14:29:32.557Z,9.10
2023-03-03T14:32:02.517Z,9.00
2023-03-03T14:34:37.409Z,9.00
2023-03-03T14:37:27.100Z,9.00
2023-03-03T14:40:27.565Z,9.00
2023-03-03T14:42:58.839Z,9.00
2023-03-03T14:45:36.118Z,9.00
2023-03-03T14:48:15.865Z,8.90
2023-03-03T14:50:49.637Z,8.90
2023-03-03T14:53:23.926Z,8.90
2023-03-03T14:55:53.845Z,8.90
2023-03-03T14:58:31.209Z,8.90
2023-03-03T15:01:14.065Z,8.90
2023-03-03T15:03:49.193Z,8.90
2023-03-03T15:06:31.572Z,8.90
2023-03-03T15:09:26.575Z,8.80
2023-03-03T15:11:56.026Z,8.80
2023-03-03T15:14:30.924Z,8.80
2023-03-03T15:17:20.270Z,8.80
2023-03-03T15:19:55.485Z,8.80
2023-03-03T15:22:48.255Z,8.80
2023-03-03T15:25:42.808Z,8.80
2023-03-03T15:28:27.813Z,8.70
2023-03-03T15:31:02.750Z,8.60
2023-03-03T15:33:38.731Z,8.60
2023-03-03T15:36:15.124Z,8.60
2023-03-03T15:38:57.001Z,8.60
2023-03-03T15:41:41.946Z,8.50
2023-03-03T15:44:22.072Z,8.50
2023-03-03T15:47:13.046Z,8.40
2023-03-03T15:49:58.330Z,8.40
2023-03-03T15:52:39.451Z,8.30
2023-03-03T15:55:33.352Z,8.30
2023-03-03T15:58:21.110Z,8.30
2023-03-03T16:01:02.126Z,8.20
2023-03-03T16:03:36.420Z,8.10
2023-03-03T16:06:12.076Z,8.10
2023-03-03T16:08:50.441Z,8.10
2023-03-03T16:11:24.221Z,8.10
2023-03-03T16:14:05.006Z,8.00
2023-03-03T16:16:44.155Z,8.00
2023-03-03T16:19:25.876Z,8.00
2023-03-03T16:22:17.270Z,7.90
2023-03-03T16:25:00.206Z,7.90
2023-03-03T16:27:35.415Z,7.80
2023-03-03T16:30:15.753Z,7.80
2023-03-03T16:32:48.724Z,7.80
2023-03-03T16:35:23.352Z,7.70
2023-03-03T16:37:59.606Z,7.70
2023-03-03T16:40:32.886Z,7.60
2023-03-03T16:43:11.079Z,7.60
2023-03-03T16:45:41.286Z,7.50
2023-03-03T16:48:22.243Z,7.50
2023-03-03T16:50:58.794Z,7.50
2023-03-03T16:53:53.810Z,7.40
2023-03-03T16:56:25.196Z,7.40
2023-03-03T16:59:11.419Z,7.40
2023-03-03T17:01:50.781Z,7.40
2023-03-03T17:04:35.914Z,7.30
2023-03-03T17:07:13.006Z,7.30
2023-03-03T17:10:06.849Z,7.20
2023-03-03T17:12:51.021Z,7.20
2023-03-03T17:15:30.355Z,7.20
2023-03-03T17:18:09.403Z,7.20
2023-03-03T17:20:45.635Z,7.10
2023-03-03T17:23:40.605Z,7.10
2023-03-03T17:26:24.142Z,7.10
2023-03-03T17:29:05.320Z,7.00
2023-03-03T17:31:40.935Z,7.00
2023-03-03T17:34:25.018Z,7.00
2023-03-03T17:37:04.760Z,7.00
2023-03-03T17:39:53.820Z,7.00
2023-03-03T17:42:33.075Z,7.00
2023-03-03T17:45:07.635Z,7.00
2023-03-03T17:47:54.444Z,6.90
2023-03-03T17:50:36.466Z,6.90
2023-03-03T17:53:27.740Z,6.90
2023-03-03T17:56:04.588Z,6.80
2023-03-03T17:58:53.140Z,6.80
2023-03-03T18:01:38.831Z,6.80
2023-03-03T18:04:17.924Z,6.80
2023-03-03T18:07:12.749Z,6.80
2023-03-03T18:09:51.051Z,6.80
2023-03-03T18:12:27.983Z,6.80
2023-03-03T18:15:28.950Z,6.80
2023-03-03T18:18:06.898Z,6.80
2023-03-03T18:21:01.003Z,6.80
2023-03-03T18:23:39.809Z,6.80
2023-03-03T18:26:41.435Z,6.80
2023-03-03T18:29:24.170Z,6.70
2023-03-03T18:32:19.675Z,6.70
2023-03-03T18:34:47.892Z,6.70
2023-03-03T18:37:40.150Z,6.60
2023-03-03T18:40:29.075Z,6.60
2023-03-03T18:42:57.095Z,6.50
2023-03-03T18:45:51.626Z,6.50
2023-03-03T18:48:41.147Z,6.50
2023-03-03T18:51:09.617Z,6.50
2023-03-03T18:53:38.075Z,6.50
2023-03-03T18:56:13.136Z,6.50
2023-03-03T18:58:41.988Z,6.40
2023-03-03T19:01:41.773Z,6.40
2023-03-03T19:04:25.398Z,6.40
2023-03-03T19:07:26.708Z,6.40
2023-03-03T19:10:01.762Z,6.40
2023-03-03T19:13:00.440Z,6.40
2023-03-03T19:15:51.896Z,6.40
2023-03-03T19:18:23.626Z,6.40
2023-03-03T19:20:56.942Z,6.30
2023-03-03T19:23:32.492Z,6.30
2023-03-03T19:26:37.176Z,6.30
2023-03-03T19:29:14.511Z,6.30
2023-03-03T19:31:48.255Z,6.30
2023-03-03T19:34:24.089Z,6.30
2023-03-03T19:37:02.209Z,6.30
2023-03-03T19:39:51.686Z,6.30
2023-03-03T19:42:30.957Z,6.30
2023-03-03T19:45:11.799Z,6.30
2023-03-03T19:47:45.851Z,6.30
2023-03-03T19:50:30.726Z,6.30
2023-03-03T19:53:07.381Z,6.30
2023-03-03T19:55:45.491Z,6.30
2023-03-03T19:58:23.726Z,6.30
2023-03-03T20:00:58.316Z,6.30
2023-03-03T20:04:02.179Z,6.30
2023-03-03T20:06:38.852Z,6.30
2023-03-03T20:09:20.752Z,6.30
2023-03-03T20:12:03.996Z,6.30
2023-03-03T20:14:46.062Z,6.30
2023-03-03T20:17:38.695Z,6.30
2023-03-03T20:20:22.360Z,6.20
2023-03-03T20:23:02.385Z,6.20
2023-03-03T20:25:37.299Z,6.20
2023-03-03T20:28:15.019Z,6.20
2023-03-03T20:31:03.901Z,6.20
2023-03-03T20:33:46.160Z,6.20
2023-03-03T20:36:25.637Z,6.20
2023-03-03T20:39:04.296Z,6.20
2023-03-03T20:41:45.929Z,6.20
2023-03-03T20:44:25.673Z,6.20
2023-03-03T20:47:02.423Z,6.10
2023-03-03T20:49:46.058Z,6.10
2023-03-03T20:52:21.267Z,6.20
2023-03-03T20:54:55.921Z,6.20
2023-03-03T20:57:34.041Z,6.10
2023-03-03T21:00:06.195Z,6.10
2023-03-03T21:02:43.464Z,6.10
2023-03-03T21:05:14.760Z,6.10
2023-03-03T21:07:53.487Z,6.10
2023-03-03T21:10:24.265Z,6.10
2023-03-03T21:12:54.280Z,6.10
2023-03-03T21:15:29.447Z,6.10
2023-03-03T21:17:58.711Z,6.10
2023-03-03T21:20:30.646Z,6.10
2023-03-03T21:23:00.141Z,6.10
2023-03-03T21:25:45.950Z,6.10
2023-03-03T21:28:17.233Z,6.10
2023-03-03T21:31:08.922Z,6.10
2023-03-03T21:33:41.620Z,6.00
2023-03-03T21:36:10.370Z,6.10
2023-03-03T21:38:40.016Z,6.10
2023-03-03T21:41:08.916Z,6.00
2023-03-03T21:43:40.062Z,6.10
2023-03-03T21:46:08.513Z,6.10
2023-03-03T21:48:36.539Z,6.00
2023-03-03T21:51:04.682Z,6.00
2023-03-03T21:53:32.667Z,6.00
2023-03-03T21:56:00.695Z,6.00
2023-03-03T21:58:28.744Z,6.00
2023-03-03T22:00:58.196Z,6.00
2023-03-03T22:03:26.954Z,6.00
2023-03-03T22:05:54.890Z,6.00
2023-03-03T22:08:23.637Z,6.00
2023-03-03T22:10:55.864Z,6.00
2023-03-03T22:13:25.278Z,6.00
2023-03-03T22:15:54.008Z,6.00
2023-03-03T22:18:23.464Z,6.00
2023-03-03T22:20:51.575Z,6.00
2023-03-03T22:23:19.942Z,6.00
2023-03-03T22:25:47.948Z,6.00
2023-03-03T22:28:16.010Z,6.00
2023-03-03T22:30:44.101Z,6.00
2023-03-03T22:33:12.200Z,6.00
2023-03-03T22:35:41.627Z,6.00
2023-03-03T22:38:09.609Z,6.00
2023-03-03T22:40:37.553Z,6.00
2023-03-03T22:43:06.423Z,6.00
2023-03-03T22:45:34.813Z,5.90
2023-03-03T22:48:02.825Z,6.00
2023-03-03T22:50:30.813Z,6.00
2023-03-03T22:53:00.158Z,6.00
2023-03-03T22:55:29.278Z,6.00
2023-03-03T22:57:57.278Z,6.00
2023-03-03T23:00:25.389Z,5.90
2023-03-03T23:02:53.469Z,5.90
2023-03-03T23:05:21.644Z,5.90
2023-03-03T23:07:49.687Z,5.90
2023-03-03T23:10:19.454Z,5.90
2023-03-03T23:12:47.410Z,5.90
2023-03-03T23:15:16.241Z,5.90
2023-03-03T23:17:46.372Z,5.90
2023-03-03T23:20:16.174Z,5.90
2023-03-03T23:22:44.332Z,5.90
2023-03-03T23:25:13.789Z,5.90
2023-03-03T23:27:43.740Z,5.90
2023-03-03T23:30:14.446Z,5.90
2023-03-03T23:32:42.444Z,5.90
2023-03-03T23:35:11.278Z,5.90
2023-03-03T23:37:39.389Z,5.90
2023-03-03T23:40:08.750Z,5.90
2023-03-03T23:42:36.746Z,5.90
2023-03-03T23:45:07.311Z,5.90
2023-03-03T23:47:35.349Z,5.90
2023-03-03T23:50:03.439Z,5.90
2023-03-03T23:52:31.384Z,5.90
2023-03-03T23:54:59.342Z,5.90
2023-03-03T23:57:27.352Z,5.90
2023-03-03T23:59:55.351Z,5.80
